sensor_id;sensor_type;location;lat;lon;timestamp;pressure;altitude;pressure_sealevel;temperature
41940;BMP180;23057;48.554;14.454;2022-10-16T00:02:15;93865.00;;;19.40
41940;BMP180;23057;48.554;14.454;2022-10-16T00:04:46;93871.00;;;19.40
41940;BMP180;23057;48.554;14.454;2022-10-16T00:07:17;93860.00;;;19.30
41940;BMP180;23057;48.554;14.454;2022-10-16T00:09:48;93864.00;;;19.30
41940;BMP180;23057;48.554;14.454;2022-10-16T00:12:19;93868.00;;;19.30
41940;BMP180;23057;48.554;14.454;2022-10-16T00:14:50;93870.00;;;19.20
41940;BMP180;23057;48.554;14.454;2022-10-16T00:17:20;93867.00;;;19.20
41940;BMP180;23057;48.554;14.454;2022-10-16T00:19:51;93875.00;;;19.20
41940;BMP180;23057;48.554;14.454;2022-10-16T00:22:22;93869.00;;;19.30
41940;BMP180;23057;48.554;14.454;2022-10-16T00:24:54;93869.00;;;19.30
41940;BMP180;23057;48.554;14.454;2022-10-16T00:27:25;93869.00;;;19.30
41940;BMP180;23057;48.554;14.454;2022-10-16T00:29:56;93859.00;;;19.30
41940;BMP180;23057;48.554;14.454;2022-10-16T00:32:26;93866.00;;;19.20
41940;BMP180;23057;48.554;14.454;2022-10-16T00:34:57;93873.00;;;19.20
41940;BMP180;23057;48.554;14.454;2022-10-16T00:37:28;93881.00;;;19.20
41940;BMP180;23057;48.554;14.454;2022-10-16T00:39:59;93881.00;;;19.20
41940;BMP180;23057;48.554;14.454;2022-10-16T00:42:30;93889.00;;;19.20
41940;BMP180;23057;48.554;14.454;2022-10-16T00:45:02;93889.00;;;19.10
41940;BMP180;23057;48.554;14.454;2022-10-16T00:47:42;93891.00;;;19.10
41940;BMP180;23057;48.554;14.454;2022-10-16T00:50:30;93886.00;;;19.10
41940;BMP180;23057;48.554;14.454;2022-10-16T00:53:03;93892.00;;;19.10
41940;BMP180;23057;48.554;14.454;2022-10-16T00:55:35;93902.00;;;19.10
41940;BMP180;23057;48.554;14.454;2022-10-16T00:58:06;93893.00;;;19.10
41940;BMP180;23057;48.554;14.454;2022-10-16T01:00:38;93893.00;;;19.20
41940;BMP180;23057;48.554;14.454;2022-10-16T01:03:35;93888.00;;;19.20
41940;BMP180;23057;48.554;14.454;2022-10-16T01:06:34;93888.00;;;19.20
41940;BMP180;23057;48.554;14.454;2022-10-16T01:12:50;93882.00;;;19.00
41940;BMP180;23057;48.554;14.454;2022-10-16T01:21:13;93892.00;;;18.90
41940;BMP180;23057;48.554;14.454;2022-10-16T01:32:50;93891.00;;;18.70
41940;BMP180;23057;48.554;14.454;2022-10-16T01:35:46;93887.00;;;18.70
41940;BMP180;23057;48.554;14.454;2022-10-16T01:38:30;93891.00;;;18.70
41940;BMP180;23057;48.554;14.454;2022-10-16T01:41:33;93903.00;;;18.70
41940;BMP180;23057;48.554;14.454;2022-10-16T01:44:21;93906.00;;;18.80
41940;BMP180;23057;48.554;14.454;2022-10-16T01:46:58;93905.00;;;18.80
41940;BMP180;23057;48.554;14.454;2022-10-16T01:49:34;93897.00;;;18.70
41940;BMP180;23057;48.554;14.454;2022-10-16T01:52:15;93898.00;;;18.80
41940;BMP180;23057;48.554;14.454;2022-10-16T01:54:54;93910.00;;;18.70
41940;BMP180;23057;48.554;14.454;2022-10-16T01:57:29;93906.00;;;18.80
41940;BMP180;23057;48.554;14.454;2022-10-16T02:00:09;93902.00;;;18.70
41940;BMP180;23057;48.554;14.454;2022-10-16T02:02:47;93914.00;;;18.70
41940;BMP180;23057;48.554;14.454;2022-10-16T02:05:32;93916.00;;;18.70
41940;BMP180;23057;48.554;14.454;2022-10-16T02:08:08;93924.00;;;18.70
41940;BMP180;23057;48.554;14.454;2022-10-16T02:10:39;93920.00;;;18.60
41940;BMP180;23057;48.554;14.454;2022-10-16T02:13:17;93923.00;;;18.60
41940;BMP180;23057;48.554;14.454;2022-10-16T02:15:53;93919.00;;;18.50
41940;BMP180;23057;48.554;14.454;2022-10-16T02:18:25;93913.00;;;18.50
41940;BMP180;23057;48.554;14.454;2022-10-16T02:21:26;93930.00;;;18.50
41940;BMP180;23057;48.554;14.454;2022-10-16T02:33:17;93927.00;;;18.20
41940;BMP180;23057;48.554;14.454;2022-10-16T02:35:52;93925.00;;;18.30
41940;BMP180;23057;48.554;14.454;2022-10-16T02:38:26;93926.00;;;18.30
41940;BMP180;23057;48.554;14.454;2022-10-16T02:40:58;93929.00;;;18.30
41940;BMP180;23057;48.554;14.454;2022-10-16T02:43:29;93929.00;;;18.30
41940;BMP180;23057;48.554;14.454;2022-10-16T02:46:01;93930.00;;;18.40
41940;BMP180;23057;48.554;14.454;2022-10-16T02:48:31;93928.00;;;18.40
41940;BMP180;23057;48.554;14.454;2022-10-16T02:51:03;93930.00;;;18.40
41940;BMP180;23057;48.554;14.454;2022-10-16T02:53:34;93931.00;;;18.40
41940;BMP180;23057;48.554;14.454;2022-10-16T02:56:05;93926.00;;;18.30
41940;BMP180;23057;48.554;14.454;2022-10-16T02:58:35;93937.00;;;18.30
41940;BMP180;23057;48.554;14.454;2022-10-16T03:01:06;93939.00;;;18.30
41940;BMP180;23057;48.554;14.454;2022-10-16T03:03:37;93944.00;;;18.30
41940;BMP180;23057;48.554;14.454;2022-10-16T03:06:09;93942.00;;;18.30
41940;BMP180;23057;48.554;14.454;2022-10-16T03:08:39;93938.00;;;18.20
41940;BMP180;23057;48.554;14.454;2022-10-16T03:11:10;93947.00;;;18.20
41940;BMP180;23057;48.554;14.454;2022-10-16T03:13:41;93949.00;;;18.20
41940;BMP180;23057;48.554;14.454;2022-10-16T03:16:12;93942.00;;;18.20
41940;BMP180;23057;48.554;14.454;2022-10-16T03:18:43;93952.00;;;18.20
41940;BMP180;23057;48.554;14.454;2022-10-16T03:21:18;93955.00;;;18.20
41940;BMP180;23057;48.554;14.454;2022-10-16T03:23:49;93954.00;;;18.20
41940;BMP180;23057;48.554;14.454;2022-10-16T03:26:20;93956.00;;;18.20
41940;BMP180;23057;48.554;14.454;2022-10-16T03:28:51;93958.00;;;18.20
41940;BMP180;23057;48.554;14.454;2022-10-16T03:31:22;93961.00;;;18.20
41940;BMP180;23057;48.554;14.454;2022-10-16T03:33:52;93961.00;;;18.20
41940;BMP180;23057;48.554;14.454;2022-10-16T03:36:23;93947.00;;;18.10
41940;BMP180;23057;48.554;14.454;2022-10-16T03:38:54;93958.00;;;18.10
41940;BMP180;23057;48.554;14.454;2022-10-16T03:41:25;93951.00;;;18.10
41940;BMP180;23057;48.554;14.454;2022-10-16T03:43:56;93953.00;;;18.00
41940;BMP180;23057;48.554;14.454;2022-10-16T03:46:27;93951.00;;;18.00
41940;BMP180;23057;48.554;14.454;2022-10-16T03:48:58;93949.00;;;18.00
41940;BMP180;23057;48.554;14.454;2022-10-16T03:51:29;93950.00;;;17.90
41940;BMP180;23057;48.554;14.454;2022-10-16T03:54:00;93950.00;;;17.90
41940;BMP180;23057;48.554;14.454;2022-10-16T03:56:30;93945.00;;;17.90
41940;BMP180;23057;48.554;14.454;2022-10-16T03:59:01;93949.00;;;17.80
41940;BMP180;23057;48.554;14.454;2022-10-16T04:01:32;93949.00;;;17.80
41940;BMP180;23057;48.554;14.454;2022-10-16T04:04:03;93952.00;;;17.80
41940;BMP180;23057;48.554;14.454;2022-10-16T04:06:34;93964.00;;;17.80
41940;BMP180;23057;48.554;14.454;2022-10-16T04:09:05;93973.00;;;17.80
41940;BMP180;23057;48.554;14.454;2022-10-16T04:11:36;93970.00;;;17.90
41940;BMP180;23057;48.554;14.454;2022-10-16T04:14:07;93980.00;;;17.90
41940;BMP180;23057;48.554;14.454;2022-10-16T04:16:38;93983.00;;;17.80
41940;BMP180;23057;48.554;14.454;2022-10-16T04:19:10;93988.00;;;17.80
41940;BMP180;23057;48.554;14.454;2022-10-16T04:21:41;93990.00;;;17.80
41940;BMP180;23057;48.554;14.454;2022-10-16T04:24:12;93989.00;;;17.80
41940;BMP180;23057;48.554;14.454;2022-10-16T04:26:43;93984.00;;;17.80
41940;BMP180;23057;48.554;14.454;2022-10-16T04:29:14;93987.00;;;17.90
41940;BMP180;23057;48.554;14.454;2022-10-16T04:31:46;93977.00;;;17.90
41940;BMP180;23057;48.554;14.454;2022-10-16T04:34:17;93971.00;;;17.80
41940;BMP180;23057;48.554;14.454;2022-10-16T04:36:48;93983.00;;;17.80
41940;BMP180;23057;48.554;14.454;2022-10-16T04:39:22;93988.00;;;17.80
41940;BMP180;23057;48.554;14.454;2022-10-16T04:41:53;93992.00;;;17.80
41940;BMP180;23057;48.554;14.454;2022-10-16T04:44:24;93983.00;;;17.90
41940;BMP180;23057;48.554;14.454;2022-10-16T04:46:55;93985.00;;;17.90
41940;BMP180;23057;48.554;14.454;2022-10-16T04:49:25;93979.00;;;17.80
41940;BMP180;23057;48.554;14.454;2022-10-16T04:51:56;93983.00;;;17.90
41940;BMP180;23057;48.554;14.454;2022-10-16T04:54:27;93982.00;;;17.90
41940;BMP180;23057;48.554;14.454;2022-10-16T04:56:58;93994.00;;;17.90
41940;BMP180;23057;48.554;14.454;2022-10-16T04:59:29;93997.00;;;18.00
41940;BMP180;23057;48.554;14.454;2022-10-16T05:02:00;94002.00;;;18.10
41940;BMP180;23057;48.554;14.454;2022-10-16T05:04:31;94001.00;;;18.10
41940;BMP180;23057;48.554;14.454;2022-10-16T05:07:02;94009.00;;;18.20
41940;BMP180;23057;48.554;14.454;2022-10-16T05:09:32;94004.00;;;18.20
41940;BMP180;23057;48.554;14.454;2022-10-16T05:12:04;94003.00;;;18.30
41940;BMP180;23057;48.554;14.454;2022-10-16T05:14:35;94006.00;;;18.30
41940;BMP180;23057;48.554;14.454;2022-10-16T05:17:06;94005.00;;;18.30
41940;BMP180;23057;48.554;14.454;2022-10-16T05:19:37;93997.00;;;18.30
41940;BMP180;23057;48.554;14.454;2022-10-16T05:22:08;93999.00;;;18.40
41940;BMP180;23057;48.554;14.454;2022-10-16T05:24:39;94007.00;;;18.30
41940;BMP180;23057;48.554;14.454;2022-10-16T05:27:10;94013.00;;;18.40
41940;BMP180;23057;48.554;14.454;2022-10-16T05:29:42;94020.00;;;18.40
41940;BMP180;23057;48.554;14.454;2022-10-16T05:32:17;94025.00;;;18.40
41940;BMP180;23057;48.554;14.454;2022-10-16T05:34:50;94025.00;;;18.40
41940;BMP180;23057;48.554;14.454;2022-10-16T05:37:21;94031.00;;;18.40
41940;BMP180;23057;48.554;14.454;2022-10-16T05:39:52;94033.00;;;18.40
41940;BMP180;23057;48.554;14.454;2022-10-16T05:42:23;94029.00;;;18.40
41940;BMP180;23057;48.554;14.454;2022-10-16T05:44:54;94029.00;;;18.50
41940;BMP180;23057;48.554;14.454;2022-10-16T05:47:25;94040.00;;;18.60
41940;BMP180;23057;48.554;14.454;2022-10-16T05:49:56;94041.00;;;18.60
41940;BMP180;23057;48.554;14.454;2022-10-16T05:52:27;94043.00;;;18.80
41940;BMP180;23057;48.554;14.454;2022-10-16T05:54:58;94041.00;;;18.90
41940;BMP180;23057;48.554;14.454;2022-10-16T05:57:29;94047.00;;;19.00
41940;BMP180;23057;48.554;14.454;2022-10-16T06:00:00;94047.00;;;19.10
41940;BMP180;23057;48.554;14.454;2022-10-16T06:02:31;94048.00;;;19.20
41940;BMP180;23057;48.554;14.454;2022-10-16T06:05:02;94053.00;;;19.40
41940;BMP180;23057;48.554;14.454;2022-10-16T06:07:36;94052.00;;;19.60
41940;BMP180;23057;48.554;14.454;2022-10-16T06:10:08;94050.00;;;19.70
41940;BMP180;23057;48.554;14.454;2022-10-16T06:12:39;94056.00;;;19.80
41940;BMP180;23057;48.554;14.454;2022-10-16T06:15:10;94060.00;;;19.80
41940;BMP180;23057;48.554;14.454;2022-10-16T06:17:41;94060.00;;;19.90
41940;BMP180;23057;48.554;14.454;2022-10-16T06:20:11;94060.00;;;20.00
41940;BMP180;23057;48.554;14.454;2022-10-16T06:22:42;94066.00;;;20.20
41940;BMP180;23057;48.554;14.454;2022-10-16T06:25:14;94058.00;;;20.40
41940;BMP180;23057;48.554;14.454;2022-10-16T06:27:45;94067.00;;;20.60
41940;BMP180;23057;48.554;14.454;2022-10-16T06:30:16;94068.00;;;20.80
41940;BMP180;23057;48.554;14.454;2022-10-16T06:32:47;94076.00;;;21.00
41940;BMP180;23057;48.554;14.454;2022-10-16T06:35:18;94077.00;;;21.10
41940;BMP180;23057;48.554;14.454;2022-10-16T06:37:49;94074.00;;;21.40
41940;BMP180;23057;48.554;14.454;2022-10-16T06:40:19;94084.00;;;21.50
41940;BMP180;23057;48.554;14.454;2022-10-16T06:42:50;94085.00;;;21.70
41940;BMP180;23057;48.554;14.454;2022-10-16T06:45:22;94092.00;;;21.80
41940;BMP180;23057;48.554;14.454;2022-10-16T06:47:53;94089.00;;;22.00
41940;BMP180;23057;48.554;14.454;2022-10-16T06:50:24;94100.00;;;22.20
41940;BMP180;23057;48.554;14.454;2022-10-16T06:52:54;94106.00;;;22.40
41940;BMP180;23057;48.554;14.454;2022-10-16T06:55:25;94101.00;;;22.60
41940;BMP180;23057;48.554;14.454;2022-10-16T06:57:56;94104.00;;;22.80
41940;BMP180;23057;48.554;14.454;2022-10-16T07:00:27;94106.00;;;22.90
41940;BMP180;23057;48.554;14.454;2022-10-16T07:02:58;94108.00;;;22.90
41940;BMP180;23057;48.554;14.454;2022-10-16T07:05:29;94103.00;;;23.10
41940;BMP180;23057;48.554;14.454;2022-10-16T07:07:59;94107.00;;;23.20
41940;BMP180;23057;48.554;14.454;2022-10-16T07:10:31;94114.00;;;23.40
41940;BMP180;23057;48.554;14.454;2022-10-16T07:13:03;94114.00;;;23.60
41940;BMP180;23057;48.554;14.454;2022-10-16T07:15:34;94109.00;;;23.60
41940;BMP180;23057;48.554;14.454;2022-10-16T07:18:05;94122.00;;;23.70
41940;BMP180;23057;48.554;14.454;2022-10-16T07:20:36;94115.00;;;23.70
41940;BMP180;23057;48.554;14.454;2022-10-16T07:23:07;94119.00;;;23.60
41940;BMP180;23057;48.554;14.454;2022-10-16T07:25:38;94127.00;;;23.50
41940;BMP180;23057;48.554;14.454;2022-10-16T07:28:09;94131.00;;;23.30
41940;BMP180;23057;48.554;14.454;2022-10-16T07:30:40;94133.00;;;23.20
41940;BMP180;23057;48.554;14.454;2022-10-16T07:33:11;94139.00;;;23.20
41940;BMP180;23057;48.554;14.454;2022-10-16T07:35:53;94137.00;;;23.10
41940;BMP180;23057;48.554;14.454;2022-10-16T07:38:24;94139.00;;;23.00
41940;BMP180;23057;48.554;14.454;2022-10-16T07:40:57;94150.00;;;22.90
41940;BMP180;23057;48.554;14.454;2022-10-16T07:43:29;94152.00;;;22.80
41940;BMP180;23057;48.554;14.454;2022-10-16T07:46:01;94159.00;;;22.70
41940;BMP180;23057;48.554;14.454;2022-10-16T07:48:34;94163.00;;;22.70
41940;BMP180;23057;48.554;14.454;2022-10-16T07:51:07;94170.00;;;22.60
41940;BMP180;23057;48.554;14.454;2022-10-16T07:53:38;94181.00;;;22.60
41940;BMP180;23057;48.554;14.454;2022-10-16T07:56:09;94184.00;;;22.60
41940;BMP180;23057;48.554;14.454;2022-10-16T07:58:42;94179.00;;;22.70
41940;BMP180;23057;48.554;14.454;2022-10-16T08:01:15;94176.00;;;22.70
41940;BMP180;23057;48.554;14.454;2022-10-16T08:03:52;94167.00;;;22.80
41940;BMP180;23057;48.554;14.454;2022-10-16T08:06:23;94169.00;;;22.80
41940;BMP180;23057;48.554;14.454;2022-10-16T08:08:56;94160.00;;;22.80
41940;BMP180;23057;48.554;14.454;2022-10-16T08:11:26;94173.00;;;22.80
41940;BMP180;23057;48.554;14.454;2022-10-16T08:13:57;94181.00;;;22.80
41940;BMP180;23057;48.554;14.454;2022-10-16T08:16:28;94187.00;;;22.70
41940;BMP180;23057;48.554;14.454;2022-10-16T08:18:59;94181.00;;;22.70
41940;BMP180;23057;48.554;14.454;2022-10-16T08:21:30;94176.00;;;22.80
41940;BMP180;23057;48.554;14.454;2022-10-16T08:24:01;94173.00;;;22.80
41940;BMP180;23057;48.554;14.454;2022-10-16T08:26:32;94160.00;;;22.90
41940;BMP180;23057;48.554;14.454;2022-10-16T08:29:02;94151.00;;;23.00
41940;BMP180;23057;48.554;14.454;2022-10-16T08:31:33;94162.00;;;23.20
41940;BMP180;23057;48.554;14.454;2022-10-16T08:34:04;94161.00;;;23.30
41940;BMP180;23057;48.554;14.454;2022-10-16T08:36:35;94161.00;;;23.40
41940;BMP180;23057;48.554;14.454;2022-10-16T08:39:06;94160.00;;;23.40
41940;BMP180;23057;48.554;14.454;2022-10-16T08:45:26;94168.00;;;23.60
41940;BMP180;23057;48.554;14.454;2022-10-16T08:48:30;94170.00;;;23.80
41940;BMP180;23057;48.554;14.454;2022-10-16T08:51:32;94172.00;;;24.10
41940;BMP180;23057;48.554;14.454;2022-10-16T08:57:16;94197.00;;;24.60
41940;BMP180;23057;48.554;14.454;2022-10-16T08:59:51;94189.00;;;24.80
41940;BMP180;23057;48.554;14.454;2022-10-16T09:02:48;94193.00;;;25.00
41940;BMP180;23057;48.554;14.454;2022-10-16T09:12:31;94204.00;;;25.40
41940;BMP180;23057;48.554;14.454;2022-10-16T09:15:37;94211.00;;;25.60
41940;BMP180;23057;48.554;14.454;2022-10-16T09:18:51;94210.00;;;25.80
41940;BMP180;23057;48.554;14.454;2022-10-16T09:21:41;94217.00;;;25.80
41940;BMP180;23057;48.554;14.454;2022-10-16T09:24:21;94216.00;;;26.00
41940;BMP180;23057;48.554;14.454;2022-10-16T09:26:55;94221.00;;;26.10
41940;BMP180;23057;48.554;14.454;2022-10-16T09:29:26;94214.00;;;26.30
41940;BMP180;23057;48.554;14.454;2022-10-16T09:32:16;94224.00;;;26.40
41940;BMP180;23057;48.554;14.454;2022-10-16T09:34:55;94220.00;;;26.50
41940;BMP180;23057;48.554;14.454;2022-10-16T09:37:28;94229.00;;;26.50
41940;BMP180;23057;48.554;14.454;2022-10-16T09:39:59;94229.00;;;26.60
41940;BMP180;23057;48.554;14.454;2022-10-16T09:42:36;94232.00;;;26.60
41940;BMP180;23057;48.554;14.454;2022-10-16T09:45:23;94224.00;;;26.50
41940;BMP180;23057;48.554;14.454;2022-10-16T09:47:54;94231.00;;;26.50
41940;BMP180;23057;48.554;14.454;2022-10-16T09:50:28;94231.00;;;26.50
41940;BMP180;23057;48.554;14.454;2022-10-16T09:53:14;94227.00;;;26.50
41940;BMP180;23057;48.554;14.454;2022-10-16T09:55:50;94241.00;;;26.40
41940;BMP180;23057;48.554;14.454;2022-10-16T09:58:23;94232.00;;;26.40
41940;BMP180;23057;48.554;14.454;2022-10-16T10:00:55;94235.00;;;26.40
41940;BMP180;23057;48.554;14.454;2022-10-16T10:03:40;94236.00;;;26.40
41940;BMP180;23057;48.554;14.454;2022-10-16T10:06:25;94230.00;;;26.40
41940;BMP180;23057;48.554;14.454;2022-10-16T10:09:37;94237.00;;;26.40
41940;BMP180;23057;48.554;14.454;2022-10-16T10:12:27;94232.00;;;26.50
41940;BMP180;23057;48.554;14.454;2022-10-16T10:15:13;94227.00;;;26.60
41940;BMP180;23057;48.554;14.454;2022-10-16T10:17:55;94223.00;;;26.70
41940;BMP180;23057;48.554;14.454;2022-10-16T10:20:35;94226.00;;;26.70
41940;BMP180;23057;48.554;14.454;2022-10-16T10:23:25;94231.00;;;26.60
41940;BMP180;23057;48.554;14.454;2022-10-16T10:26:07;94229.00;;;26.60
41940;BMP180;23057;48.554;14.454;2022-10-16T10:29:06;94233.00;;;26.60
41940;BMP180;23057;48.554;14.454;2022-10-16T10:32:24;94233.00;;;26.60
41940;BMP180;23057;48.554;14.454;2022-10-16T10:35:45;94236.00;;;26.50
41940;BMP180;23057;48.554;14.454;2022-10-16T10:44:15;94232.00;;;26.70
41940;BMP180;23057;48.554;14.454;2022-10-16T10:57:02;94236.00;;;27.30
41940;BMP180;23057;48.554;14.454;2022-10-16T11:00:10;94230.00;;;27.40
41940;BMP180;23057;48.554;14.454;2022-10-16T11:06:15;94227.00;;;27.70
41940;BMP180;23057;48.554;14.454;2022-10-16T11:09:34;94220.00;;;27.80
41940;BMP180;23057;48.554;14.454;2022-10-16T11:12:26;94220.00;;;27.90
41940;BMP180;23057;48.554;14.454;2022-10-16T11:15:15;94225.00;;;28.10
41940;BMP180;23057;48.554;14.454;2022-10-16T11:18:52;94223.00;;;28.30
41940;BMP180;23057;48.554;14.454;2022-10-16T11:21:23;94228.00;;;28.40
41940;BMP180;23057;48.554;14.454;2022-10-16T11:24:15;94223.00;;;28.60
41940;BMP180;23057;48.554;14.454;2022-10-16T11:27:08;94228.00;;;28.70
41940;BMP180;23057;48.554;14.454;2022-10-16T11:29:57;94228.00;;;28.80
41940;BMP180;23057;48.554;14.454;2022-10-16T11:32:54;94231.00;;;28.90
41940;BMP180;23057;48.554;14.454;2022-10-16T11:39:01;94221.00;;;29.10
41940;BMP180;23057;48.554;14.454;2022-10-16T11:42:01;94212.00;;;29.00
41940;BMP180;23057;48.554;14.454;2022-10-16T11:45:02;94213.00;;;29.00
41940;BMP180;23057;48.554;14.454;2022-10-16T11:47:52;94212.00;;;29.00
41940;BMP180;23057;48.554;14.454;2022-10-16T11:50:56;94218.00;;;29.10
41940;BMP180;23057;48.554;14.454;2022-10-16T11:53:55;94220.00;;;29.20
41940;BMP180;23057;48.554;14.454;2022-10-16T11:56:37;94217.00;;;29.30
41940;BMP180;23057;48.554;14.454;2022-10-16T11:59:37;94220.00;;;29.30
41940;BMP180;23057;48.554;14.454;2022-10-16T12:02:59;94223.00;;;29.40
41940;BMP180;23057;48.554;14.454;2022-10-16T12:08:54;94215.00;;;29.50
41940;BMP180;23057;48.554;14.454;2022-10-16T12:16:58;94226.00;;;29.70
41940;BMP180;23057;48.554;14.454;2022-10-16T12:19:32;94220.00;;;29.70
41940;BMP180;23057;48.554;14.454;2022-10-16T12:22:03;94217.00;;;29.70
41940;BMP180;23057;48.554;14.454;2022-10-16T12:24:42;94225.00;;;29.70
41940;BMP180;23057;48.554;14.454;2022-10-16T12:27:31;94227.00;;;29.70
41940;BMP180;23057;48.554;14.454;2022-10-16T12:30:06;94227.00;;;29.70
41940;BMP180;23057;48.554;14.454;2022-10-16T12:32:39;94225.00;;;29.70
41940;BMP180;23057;48.554;14.454;2022-10-16T12:35:27;94230.00;;;29.70
41940;BMP180;23057;48.554;14.454;2022-10-16T12:38:48;94226.00;;;29.70
41940;BMP180;23057;48.554;14.454;2022-10-16T12:41:39;94226.00;;;29.70
41940;BMP180;23057;48.554;14.454;2022-10-16T12:44:24;94225.00;;;29.70
41940;BMP180;23057;48.554;14.454;2022-10-16T12:46:56;94235.00;;;29.80
41940;BMP180;23057;48.554;14.454;2022-10-16T12:49:37;94232.00;;;29.80
41940;BMP180;23057;48.554;14.454;2022-10-16T12:52:39;94226.00;;;29.90
41940;BMP180;23057;48.554;14.454;2022-10-16T12:55:18;94232.00;;;29.90
41940;BMP180;23057;48.554;14.454;2022-10-16T13:00:52;94242.00;;;30.00
41940;BMP180;23057;48.554;14.454;2022-10-16T13:04:19;94242.00;;;30.00
41940;BMP180;23057;48.554;14.454;2022-10-16T13:07:26;94236.00;;;30.10
41940;BMP180;23057;48.554;14.454;2022-10-16T13:10:36;94241.00;;;30.10
41940;BMP180;23057;48.554;14.454;2022-10-16T13:13:55;94240.00;;;30.20
41940;BMP180;23057;48.554;14.454;2022-10-16T13:16:52;94238.00;;;30.20
41940;BMP180;23057;48.554;14.454;2022-10-16T13:30:25;94236.00;;;30.20
41940;BMP180;23057;48.554;14.454;2022-10-16T13:33:14;94228.00;;;30.20
41940;BMP180;23057;48.554;14.454;2022-10-16T13:35:56;94237.00;;;30.10
41940;BMP180;23057;48.554;14.454;2022-10-16T13:38:32;94248.00;;;30.10
41940;BMP180;23057;48.554;14.454;2022-10-16T13:41:15;94231.00;;;30.10
41940;BMP180;23057;48.554;14.454;2022-10-16T13:43:53;94238.00;;;30.10
41940;BMP180;23057;48.554;14.454;2022-10-16T13:46:27;94248.00;;;30.20
41940;BMP180;23057;48.554;14.454;2022-10-16T13:49:03;94242.00;;;30.20
41940;BMP180;23057;48.554;14.454;2022-10-16T13:51:36;94245.00;;;30.20
41940;BMP180;23057;48.554;14.454;2022-10-16T13:54:11;94251.00;;;30.20
41940;BMP180;23057;48.554;14.454;2022-10-16T13:56:42;94246.00;;;30.20
41940;BMP180;23057;48.554;14.454;2022-10-16T13:59:33;94258.00;;;30.20
41940;BMP180;23057;48.554;14.454;2022-10-16T14:02:36;94253.00;;;30.30
41940;BMP180;23057;48.554;14.454;2022-10-16T14:05:10;94259.00;;;30.30
41940;BMP180;23057;48.554;14.454;2022-10-16T14:07:42;94261.00;;;30.30
41940;BMP180;23057;48.554;14.454;2022-10-16T14:10:31;94263.00;;;30.20
41940;BMP180;23057;48.554;14.454;2022-10-16T14:13:06;94264.00;;;30.20
41940;BMP180;23057;48.554;14.454;2022-10-16T14:15:49;94263.00;;;30.20
41940;BMP180;23057;48.554;14.454;2022-10-16T14:18:25;94271.00;;;30.10
41940;BMP180;23057;48.554;14.454;2022-10-16T14:21:06;94270.00;;;30.10
41940;BMP180;23057;48.554;14.454;2022-10-16T14:23:42;94275.00;;;30.00
41940;BMP180;23057;48.554;14.454;2022-10-16T14:26:18;94274.00;;;29.90
41940;BMP180;23057;48.554;14.454;2022-10-16T14:29:10;94276.00;;;29.90
41940;BMP180;23057;48.554;14.454;2022-10-16T14:31:58;94287.00;;;29.80
41940;BMP180;23057;48.554;14.454;2022-10-16T14:34:38;94285.00;;;29.70
41940;BMP180;23057;48.554;14.454;2022-10-16T14:37:29;94289.00;;;29.70
41940;BMP180;23057;48.554;14.454;2022-10-16T14:40:02;94283.00;;;29.60
41940;BMP180;23057;48.554;14.454;2022-10-16T14:42:34;94279.00;;;29.60
41940;BMP180;23057;48.554;14.454;2022-10-16T14:45:10;94280.00;;;29.50
41940;BMP180;23057;48.554;14.454;2022-10-16T14:47:53;94285.00;;;29.50
41940;BMP180;23057;48.554;14.454;2022-10-16T14:50:26;94284.00;;;29.40
41940;BMP180;23057;48.554;14.454;2022-10-16T14:52:58;94281.00;;;29.30
41940;BMP180;23057;48.554;14.454;2022-10-16T14:55:30;94283.00;;;29.20
41940;BMP180;23057;48.554;14.454;2022-10-16T14:58:00;94290.00;;;29.20
41940;BMP180;23057;48.554;14.454;2022-10-16T15:00:32;94286.00;;;29.10
41940;BMP180;23057;48.554;14.454;2022-10-16T15:03:03;94287.00;;;28.90
41940;BMP180;23057;48.554;14.454;2022-10-16T15:05:34;94283.00;;;28.70
41940;BMP180;23057;48.554;14.454;2022-10-16T15:08:05;94288.00;;;28.60
41940;BMP180;23057;48.554;14.454;2022-10-16T15:10:41;94281.00;;;28.60
41940;BMP180;23057;48.554;14.454;2022-10-16T15:13:14;94281.00;;;28.50
41940;BMP180;23057;48.554;14.454;2022-10-16T15:15:47;94286.00;;;28.50
41940;BMP180;23057;48.554;14.454;2022-10-16T15:18:19;94275.00;;;28.50
41940;BMP180;23057;48.554;14.454;2022-10-16T15:20:51;94274.00;;;28.40
41940;BMP180;23057;48.554;14.454;2022-10-16T15:23:23;94279.00;;;28.40
41940;BMP180;23057;48.554;14.454;2022-10-16T15:25:55;94285.00;;;28.40
41940;BMP180;23057;48.554;14.454;2022-10-16T15:28:27;94284.00;;;28.30
41940;BMP180;23057;48.554;14.454;2022-10-16T15:30:58;94285.00;;;28.20
41940;BMP180;23057;48.554;14.454;2022-10-16T15:33:29;94276.00;;;28.10
41940;BMP180;23057;48.554;14.454;2022-10-16T15:36:03;94289.00;;;28.10
41940;BMP180;23057;48.554;14.454;2022-10-16T15:38:35;94292.00;;;28.10
41940;BMP180;23057;48.554;14.454;2022-10-16T15:41:06;94294.00;;;28.10
41940;BMP180;23057;48.554;14.454;2022-10-16T15:43:37;94299.00;;;28.10
41940;BMP180;23057;48.554;14.454;2022-10-16T15:46:12;94302.00;;;28.10
41940;BMP180;23057;48.554;14.454;2022-10-16T15:48:45;94296.00;;;28.00
41940;BMP180;23057;48.554;14.454;2022-10-16T15:51:17;94304.00;;;27.90
41940;BMP180;23057;48.554;14.454;2022-10-16T15:53:49;94310.00;;;27.90
41940;BMP180;23057;48.554;14.454;2022-10-16T15:56:21;94313.00;;;27.80
41940;BMP180;23057;48.554;14.454;2022-10-16T15:58:52;94304.00;;;27.70
41940;BMP180;23057;48.554;14.454;2022-10-16T16:01:24;94308.00;;;27.70
41940;BMP180;23057;48.554;14.454;2022-10-16T16:03:55;94309.00;;;27.60
41940;BMP180;23057;48.554;14.454;2022-10-16T16:06:26;94302.00;;;27.50
41940;BMP180;23057;48.554;14.454;2022-10-16T16:08:58;94303.00;;;27.40
41940;BMP180;23057;48.554;14.454;2022-10-16T16:11:30;94300.00;;;27.30
41940;BMP180;23057;48.554;14.454;2022-10-16T16:14:02;94301.00;;;27.30
41940;BMP180;23057;48.554;14.454;2022-10-16T16:16:33;94307.00;;;27.20
41940;BMP180;23057;48.554;14.454;2022-10-16T16:19:08;94314.00;;;27.20
41940;BMP180;23057;48.554;14.454;2022-10-16T16:21:39;94326.00;;;27.20